San Lorenzo, CA

10:13 PM PDT on September 18, 2014 (GMT -0700)
KCASANLO4 | Change Station
CLOSE
Current Station
Personal Weather Station
Location: San Lorenzo, CA
Elevation: 9 ft
Nearby Weather Stations

Elev 9 ft 37.67 °N, 122.14 °W | Updated 12 minutes ago

Clear
Clear
65.8 °F
Feels Like 65.8 °F
N
0.8
Wind Variable Wind from ESE
Gusts 3.8 mph

Today
High -- | Low -- °F
--% Chance of Precip.
Yesterday
High -- | Low -- °F
Precip. -- in
6:53 AM 7:11 PM
Waning Crescent, 22% visible
Pressure 29.91 in
Visibility 10.0 miles
Clouds Clear
Dew Point 62 °F
Humidity 88%
Rainfall 0.00 in
Snow Depth 1 in , 1 in , 1 in
UV 0 out of 12
Pollen 5.10 out of 12
Ozone Good
PM2.5 Good
Flu Activity Not available.
METAR KHWD 190454Z AUTO 33004KT 10SM CLR 21/18 A2988 RMK AO2 SLP127 T02060178

More Conditions Fewer Conditions

Pressure 29.91 in
Visibility 10.0 miles
Clouds Clear
Dew Point 62 °F
Humidity 88%
Rainfall 0.00 in
Snow Depth 1 in , 1 in , 1 in
UV 0 out of 12
Pollen 5.10 out of 12
Ozone Good
PM2.5 Good
Flu Activity Not available.
METAR KHWD 190454Z AUTO 33004KT 10SM CLR 21/18 A2988 RMK AO2 SLP127 T02060178

More Conditions Fewer Conditions

10-Day Weather Forecast

Almanac

Astronomy

Sep. 18, 2014 Rise Set
Actual Time 6:53 AM PDT 7:11 PM PDT
Civil Twilight 6:26 AM PDT 7:37 PM PDT
Nautical Twilight 5:56 AM PDT 8:08 PM PDT
Astronomical Twilight 5:24 AM PDT 8:39 PM PDT
Moon 1:54 AM PDT (9/18) 4:02 PM PDT (9/18)
Length of Visible Light 13h 10m
Length of Day
12h 18m
Tomorrow will be 2m 23s shorter.
Waning Crescent, 22% of the Moon is Illuminated
Sep 19
Waning Crescent
Sep 24
New
Oct 1
First Quarter
Oct 8
Full
Oct 15
Last Quarter

Yesterday's Extremes

State Highs State Lows

Community

WunderPhotos

Upload Photos

1,754,570 photos uploaded!

Nearby

Air Quality

  Air Quality AQ Index Pollutant
Yesterday Good
PM2.5
Yesterday Good
OZONE
Current Good
PM2.5
Current Good
OZONE
Thursday Good
OZONE
Friday Good
OZONE
Saturday Moderate
PM2.5
Sunday Moderate
PM2.5
Monday Good
PM2.5
Tuesday Good
PM2.5

Snow Depth

Station Depth Elevation
Adin Mountain 1 in 6200 ft
Summit Meadow 1 in 9122 ft
Spratt Creek 1 in 6200 ft
Monitor Pass 0 in 8350 ft
Leavitt Meadows 0 in 7200 ft

Earthquake Activity

City Distance Mag. Time & Date
The Geysers, California 82 miles 2.5 11:29 PM PDT
2014-09-17
Cobb, California 84 miles 2.7 1:23 PM PDT
2014-09-16
Minimum magnitude displayed is 2.5.

Coastal Water Temperatures

Place Temperature
No Stations Reporting

Nearby Weather Stations